sensor_id;sensor_type;location;lat;lon;timestamp;P1;durP1;ratioP1;P2;durP2;ratioP2
75320;SDS011;68337;52.196;5.660;2023-05-16T00:01:29;17.30;;;2.97;;
75320;SDS011;68337;52.196;5.660;2023-05-16T00:03:56;8.23;;;2.45;;
75320;SDS011;68337;52.196;5.660;2023-05-16T00:06:22;15.63;;;4.40;;
75320;SDS011;68337;52.196;5.660;2023-05-16T00:08:48;9.43;;;2.75;;
75320;SDS011;68337;52.196;5.660;2023-05-16T00:11:15;10.88;;;2.50;;
75320;SDS011;68337;52.196;5.660;2023-05-16T00:13:41;10.85;;;2.45;;
75320;SDS011;68337;52.196;5.660;2023-05-16T00:16:07;15.00;;;3.03;;
75320;SDS011;68337;52.196;5.660;2023-05-16T00:18:33;10.18;;;2.15;;
75320;SDS011;68337;52.196;5.660;2023-05-16T00:21:02;8.88;;;2.10;;
75320;SDS011;68337;52.196;5.660;2023-05-16T00:23:28;8.73;;;2.40;;
75320;SDS011;68337;52.196;5.660;2023-05-16T00:25:54;8.10;;;1.98;;
75320;SDS011;68337;52.196;5.660;2023-05-16T00:28:20;5.85;;;1.88;;
75320;SDS011;68337;52.196;5.660;2023-05-16T00:30:46;13.65;;;2.53;;
75320;SDS011;68337;52.196;5.660;2023-05-16T00:33:12;9.25;;;2.58;;
75320;SDS011;68337;52.196;5.660;2023-05-16T00:35:38;7.82;;;2.13;;
75320;SDS011;68337;52.196;5.660;2023-05-16T00:38:04;9.25;;;2.20;;
75320;SDS011;68337;52.196;5.660;2023-05-16T00:40:30;9.68;;;2.22;;
75320;SDS011;68337;52.196;5.660;2023-05-16T00:42:56;10.65;;;2.35;;
75320;SDS011;68337;52.196;5.660;2023-05-16T00:45:22;13.35;;;2.38;;
75320;SDS011;68337;52.196;5.660;2023-05-16T00:47:48;11.43;;;3.15;;
75320;SDS011;68337;52.196;5.660;2023-05-16T00:50:15;8.00;;;2.30;;
75320;SDS011;68337;52.196;5.660;2023-05-16T00:52:40;8.82;;;2.58;;
75320;SDS011;68337;52.196;5.660;2023-05-16T00:55:07;13.13;;;2.17;;
75320;SDS011;68337;52.196;5.660;2023-05-16T00:57:35;11.77;;;2.67;;
75320;SDS011;68337;52.196;5.660;2023-05-16T01:00:01;5.53;;;2.25;;
75320;SDS011;68337;52.196;5.660;2023-05-16T01:02:29;9.85;;;1.98;;
75320;SDS011;68337;52.196;5.660;2023-05-16T01:04:55;7.40;;;1.90;;
75320;SDS011;68337;52.196;5.660;2023-05-16T01:07:21;6.75;;;2.20;;
75320;SDS011;68337;52.196;5.660;2023-05-16T01:09:47;9.63;;;2.63;;
75320;SDS011;68337;52.196;5.660;2023-05-16T01:12:15;10.55;;;2.38;;
75320;SDS011;68337;52.196;5.660;2023-05-16T01:15:08;10.00;;;2.60;;
75320;SDS011;68337;52.196;5.660;2023-05-16T01:17:41;12.52;;;2.83;;
75320;SDS011;68337;52.196;5.660;2023-05-16T01:28:12;5.97;;;1.95;;
75320;SDS011;68337;52.196;5.660;2023-05-16T01:30:41;7.05;;;1.80;;
75320;SDS011;68337;52.196;5.660;2023-05-16T01:33:07;9.55;;;2.42;;
75320;SDS011;68337;52.196;5.660;2023-05-16T01:35:34;9.18;;;1.92;;
75320;SDS011;68337;52.196;5.660;2023-05-16T01:38:15;9.52;;;2.72;;
75320;SDS011;68337;52.196;5.660;2023-05-16T01:40:56;5.95;;;2.30;;
75320;SDS011;68337;52.196;5.660;2023-05-16T01:46:10;7.00;;;2.30;;
75320;SDS011;68337;52.196;5.660;2023-05-16T01:48:42;8.48;;;1.90;;
75320;SDS011;68337;52.196;5.660;2023-05-16T01:51:15;10.20;;;1.90;;
75320;SDS011;68337;52.196;5.660;2023-05-16T01:53:42;7.53;;;2.03;;
75320;SDS011;68337;52.196;5.660;2023-05-16T01:56:10;7.93;;;1.92;;
75320;SDS011;68337;52.196;5.660;2023-05-16T01:58:40;7.13;;;2.78;;
75320;SDS011;68337;52.196;5.660;2023-05-16T02:01:06;9.95;;;2.47;;
75320;SDS011;68337;52.196;5.660;2023-05-16T02:03:32;13.15;;;2.72;;
75320;SDS011;68337;52.196;5.660;2023-05-16T02:05:59;6.38;;;1.88;;
75320;SDS011;68337;52.196;5.660;2023-05-16T02:08:25;12.43;;;2.28;;
75320;SDS011;68337;52.196;5.660;2023-05-16T02:10:55;5.43;;;2.50;;
75320;SDS011;68337;52.196;5.660;2023-05-16T02:13:20;4.18;;;1.80;;
75320;SDS011;68337;52.196;5.660;2023-05-16T02:15:46;8.30;;;1.95;;
75320;SDS011;68337;52.196;5.660;2023-05-16T02:18:12;10.20;;;3.78;;
75320;SDS011;68337;52.196;5.660;2023-05-16T02:20:37;9.25;;;2.35;;
75320;SDS011;68337;52.196;5.660;2023-05-16T02:23:04;7.70;;;2.15;;
75320;SDS011;68337;52.196;5.660;2023-05-16T02:25:29;6.40;;;1.75;;
75320;SDS011;68337;52.196;5.660;2023-05-16T02:27:55;6.25;;;1.67;;
75320;SDS011;68337;52.196;5.660;2023-05-16T02:30:21;7.85;;;2.20;;
75320;SDS011;68337;52.196;5.660;2023-05-16T02:32:46;8.77;;;1.88;;
75320;SDS011;68337;52.196;5.660;2023-05-16T02:35:13;12.05;;;2.80;;
75320;SDS011;68337;52.196;5.660;2023-05-16T02:37:39;7.13;;;2.40;;
75320;SDS011;68337;52.196;5.660;2023-05-16T02:40:05;4.82;;;1.77;;
75320;SDS011;68337;52.196;5.660;2023-05-16T02:42:32;14.05;;;2.83;;
75320;SDS011;68337;52.196;5.660;2023-05-16T02:44:57;7.50;;;1.88;;
75320;SDS011;68337;52.196;5.660;2023-05-16T02:47:23;9.82;;;2.13;;
75320;SDS011;68337;52.196;5.660;2023-05-16T02:49:49;9.25;;;2.17;;
75320;SDS011;68337;52.196;5.660;2023-05-16T02:52:16;10.63;;;2.33;;
75320;SDS011;68337;52.196;5.660;2023-05-16T02:54:42;8.70;;;2.05;;
75320;SDS011;68337;52.196;5.660;2023-05-16T02:57:08;6.65;;;2.05;;
75320;SDS011;68337;52.196;5.660;2023-05-16T02:59:34;8.10;;;2.60;;
75320;SDS011;68337;52.196;5.660;2023-05-16T03:02:00;6.93;;;1.88;;
75320;SDS011;68337;52.196;5.660;2023-05-16T03:04:26;9.63;;;2.13;;
75320;SDS011;68337;52.196;5.660;2023-05-16T03:06:52;8.98;;;2.20;;
75320;SDS011;68337;52.196;5.660;2023-05-16T03:09:17;8.38;;;1.98;;
75320;SDS011;68337;52.196;5.660;2023-05-16T03:11:44;7.93;;;1.98;;
75320;SDS011;68337;52.196;5.660;2023-05-16T03:14:09;7.72;;;2.50;;
75320;SDS011;68337;52.196;5.660;2023-05-16T03:16:36;9.23;;;2.33;;
75320;SDS011;68337;52.196;5.660;2023-05-16T03:19:03;5.78;;;2.30;;
75320;SDS011;68337;52.196;5.660;2023-05-16T03:21:29;11.05;;;2.00;;
75320;SDS011;68337;52.196;5.660;2023-05-16T03:23:55;8.50;;;2.42;;
75320;SDS011;68337;52.196;5.660;2023-05-16T03:26:22;7.60;;;3.08;;
75320;SDS011;68337;52.196;5.660;2023-05-16T03:28:50;10.23;;;2.45;;
75320;SDS011;68337;52.196;5.660;2023-05-16T03:31:16;9.07;;;2.20;;
75320;SDS011;68337;52.196;5.660;2023-05-16T03:33:42;10.48;;;2.15;;
75320;SDS011;68337;52.196;5.660;2023-05-16T03:36:08;8.07;;;1.73;;
75320;SDS011;68337;52.196;5.660;2023-05-16T03:38:34;12.43;;;2.08;;
75320;SDS011;68337;52.196;5.660;2023-05-16T03:41:00;13.30;;;2.92;;
75320;SDS011;68337;52.196;5.660;2023-05-16T03:43:26;9.02;;;2.65;;
75320;SDS011;68337;52.196;5.660;2023-05-16T03:45:52;13.05;;;2.40;;
75320;SDS011;68337;52.196;5.660;2023-05-16T03:48:17;7.40;;;2.25;;
75320;SDS011;68337;52.196;5.660;2023-05-16T03:50:43;4.97;;;1.67;;
75320;SDS011;68337;52.196;5.660;2023-05-16T03:53:09;14.57;;;3.10;;
75320;SDS011;68337;52.196;5.660;2023-05-16T03:55:35;16.52;;;2.28;;
75320;SDS011;68337;52.196;5.660;2023-05-16T03:58:01;12.90;;;2.80;;
75320;SDS011;68337;52.196;5.660;2023-05-16T04:00:27;14.82;;;2.47;;
75320;SDS011;68337;52.196;5.660;2023-05-16T04:02:53;4.70;;;1.60;;
75320;SDS011;68337;52.196;5.660;2023-05-16T04:05:18;7.40;;;1.77;;
75320;SDS011;68337;52.196;5.660;2023-05-16T04:07:44;7.88;;;2.33;;
75320;SDS011;68337;52.196;5.660;2023-05-16T04:10:10;7.82;;;2.00;;
75320;SDS011;68337;52.196;5.660;2023-05-16T04:12:36;9.55;;;2.25;;
75320;SDS011;68337;52.196;5.660;2023-05-16T04:15:02;11.00;;;2.53;;
75320;SDS011;68337;52.196;5.660;2023-05-16T04:17:28;9.20;;;1.95;;
75320;SDS011;68337;52.196;5.660;2023-05-16T04:19:54;17.23;;;2.30;;
75320;SDS011;68337;52.196;5.660;2023-05-16T04:22:22;8.20;;;2.05;;
75320;SDS011;68337;52.196;5.660;2023-05-16T04:24:48;9.40;;;1.85;;
75320;SDS011;68337;52.196;5.660;2023-05-16T04:27:14;9.32;;;1.95;;
75320;SDS011;68337;52.196;5.660;2023-05-16T04:29:40;9.90;;;2.20;;
75320;SDS011;68337;52.196;5.660;2023-05-16T04:32:06;9.40;;;1.90;;
75320;SDS011;68337;52.196;5.660;2023-05-16T04:34:35;7.90;;;2.28;;
75320;SDS011;68337;52.196;5.660;2023-05-16T04:37:04;11.45;;;2.70;;
75320;SDS011;68337;52.196;5.660;2023-05-16T04:39:31;12.05;;;2.20;;
75320;SDS011;68337;52.196;5.660;2023-05-16T04:42:00;9.15;;;2.05;;
75320;SDS011;68337;52.196;5.660;2023-05-16T04:44:26;10.55;;;2.30;;
75320;SDS011;68337;52.196;5.660;2023-05-16T04:46:52;8.45;;;2.17;;
75320;SDS011;68337;52.196;5.660;2023-05-16T04:49:19;7.80;;;1.75;;
75320;SDS011;68337;52.196;5.660;2023-05-16T04:51:45;7.30;;;1.88;;
75320;SDS011;68337;52.196;5.660;2023-05-16T04:54:12;9.20;;;2.30;;
75320;SDS011;68337;52.196;5.660;2023-05-16T04:56:38;11.00;;;2.15;;
75320;SDS011;68337;52.196;5.660;2023-05-16T04:59:03;10.63;;;2.83;;
75320;SDS011;68337;52.196;5.660;2023-05-16T05:01:29;14.00;;;2.63;;
75320;SDS011;68337;52.196;5.660;2023-05-16T05:03:55;15.35;;;3.00;;
75320;SDS011;68337;52.196;5.660;2023-05-16T05:06:20;11.95;;;2.35;;
75320;SDS011;68337;52.196;5.660;2023-05-16T05:08:46;11.00;;;2.63;;
75320;SDS011;68337;52.196;5.660;2023-05-16T05:11:12;7.13;;;2.15;;
75320;SDS011;68337;52.196;5.660;2023-05-16T05:13:38;6.60;;;2.10;;
75320;SDS011;68337;52.196;5.660;2023-05-16T05:16:03;8.63;;;1.83;;
75320;SDS011;68337;52.196;5.660;2023-05-16T05:18:30;7.07;;;1.90;;
75320;SDS011;68337;52.196;5.660;2023-05-16T05:20:55;11.55;;;2.88;;
75320;SDS011;68337;52.196;5.660;2023-05-16T05:23:22;6.90;;;2.10;;
75320;SDS011;68337;52.196;5.660;2023-05-16T05:25:47;11.65;;;1.88;;
75320;SDS011;68337;52.196;5.660;2023-05-16T05:28:14;8.20;;;2.38;;
75320;SDS011;68337;52.196;5.660;2023-05-16T05:30:40;14.88;;;2.60;;
75320;SDS011;68337;52.196;5.660;2023-05-16T05:33:05;9.15;;;1.98;;
75320;SDS011;68337;52.196;5.660;2023-05-16T05:35:31;8.23;;;1.80;;
75320;SDS011;68337;52.196;5.660;2023-05-16T05:37:57;9.07;;;2.58;;
75320;SDS011;68337;52.196;5.660;2023-05-16T05:40:23;8.63;;;1.90;;
75320;SDS011;68337;52.196;5.660;2023-05-16T05:42:48;11.15;;;2.78;;
75320;SDS011;68337;52.196;5.660;2023-05-16T05:45:14;7.70;;;2.00;;
75320;SDS011;68337;52.196;5.660;2023-05-16T05:47:40;13.85;;;2.63;;
75320;SDS011;68337;52.196;5.660;2023-05-16T05:50:06;23.13;;;3.28;;
75320;SDS011;68337;52.196;5.660;2023-05-16T05:52:32;9.05;;;2.40;;
75320;SDS011;68337;52.196;5.660;2023-05-16T05:54:58;4.75;;;1.95;;
75320;SDS011;68337;52.196;5.660;2023-05-16T05:57:24;12.32;;;2.38;;
75320;SDS011;68337;52.196;5.660;2023-05-16T05:59:50;7.88;;;2.88;;
75320;SDS011;68337;52.196;5.660;2023-05-16T06:02:15;10.73;;;1.90;;
75320;SDS011;68337;52.196;5.660;2023-05-16T06:04:41;9.68;;;2.20;;
75320;SDS011;68337;52.196;5.660;2023-05-16T06:07:07;6.10;;;1.55;;
75320;SDS011;68337;52.196;5.660;2023-05-16T06:09:33;7.80;;;1.48;;
75320;SDS011;68337;52.196;5.660;2023-05-16T06:11:58;7.45;;;1.98;;
75320;SDS011;68337;52.196;5.660;2023-05-16T06:14:24;8.73;;;1.85;;
75320;SDS011;68337;52.196;5.660;2023-05-16T06:16:49;6.70;;;1.60;;
75320;SDS011;68337;52.196;5.660;2023-05-16T06:19:16;6.68;;;1.70;;
75320;SDS011;68337;52.196;5.660;2023-05-16T06:21:42;7.93;;;1.38;;
75320;SDS011;68337;52.196;5.660;2023-05-16T06:24:09;6.05;;;1.40;;
75320;SDS011;68337;52.196;5.660;2023-05-16T06:26:36;7.50;;;1.38;;
75320;SDS011;68337;52.196;5.660;2023-05-16T06:29:01;6.80;;;1.42;;
75320;SDS011;68337;52.196;5.660;2023-05-16T06:31:27;7.57;;;1.40;;
75320;SDS011;68337;52.196;5.660;2023-05-16T06:33:53;8.02;;;1.33;;
75320;SDS011;68337;52.196;5.660;2023-05-16T06:36:18;8.43;;;1.60;;
75320;SDS011;68337;52.196;5.660;2023-05-16T06:38:44;3.45;;;1.05;;
75320;SDS011;68337;52.196;5.660;2023-05-16T06:41:10;7.40;;;1.52;;
75320;SDS011;68337;52.196;5.660;2023-05-16T06:43:35;6.10;;;1.48;;
75320;SDS011;68337;52.196;5.660;2023-05-16T06:46:01;7.07;;;1.30;;
75320;SDS011;68337;52.196;5.660;2023-05-16T06:48:27;3.92;;;1.20;;
75320;SDS011;68337;52.196;5.660;2023-05-16T06:50:53;5.53;;;1.13;;
75320;SDS011;68337;52.196;5.660;2023-05-16T06:53:19;7.93;;;1.50;;
75320;SDS011;68337;52.196;5.660;2023-05-16T06:55:45;6.60;;;1.48;;
75320;SDS011;68337;52.196;5.660;2023-05-16T06:58:11;5.47;;;1.23;;
75320;SDS011;68337;52.196;5.660;2023-05-16T07:00:37;6.55;;;1.40;;
75320;SDS011;68337;52.196;5.660;2023-05-16T07:03:03;4.30;;;1.35;;
75320;SDS011;68337;52.196;5.660;2023-05-16T07:05:28;6.03;;;1.35;;
75320;SDS011;68337;52.196;5.660;2023-05-16T07:07:54;4.93;;;1.38;;
75320;SDS011;68337;52.196;5.660;2023-05-16T07:10:20;6.40;;;1.50;;
75320;SDS011;68337;52.196;5.660;2023-05-16T07:12:46;3.47;;;1.17;;
75320;SDS011;68337;52.196;5.660;2023-05-16T07:15:12;5.18;;;1.38;;
75320;SDS011;68337;52.196;5.660;2023-05-16T07:17:38;7.75;;;1.33;;
75320;SDS011;68337;52.196;5.660;2023-05-16T07:20:04;2.35;;;1.05;;
75320;SDS011;68337;52.196;5.660;2023-05-16T07:22:32;6.05;;;1.40;;
75320;SDS011;68337;52.196;5.660;2023-05-16T07:24:58;7.03;;;1.40;;
75320;SDS011;68337;52.196;5.660;2023-05-16T07:27:25;7.28;;;1.00;;
75320;SDS011;68337;52.196;5.660;2023-05-16T07:29:51;6.38;;;1.02;;
75320;SDS011;68337;52.196;5.660;2023-05-16T07:32:17;9.02;;;1.23;;
75320;SDS011;68337;52.196;5.660;2023-05-16T07:34:43;8.73;;;1.35;;
75320;SDS011;68337;52.196;5.660;2023-05-16T07:37:08;5.55;;;1.52;;
75320;SDS011;68337;52.196;5.660;2023-05-16T07:39:37;5.10;;;0.93;;
75320;SDS011;68337;52.196;5.660;2023-05-16T07:42:05;5.80;;;1.00;;
75320;SDS011;68337;52.196;5.660;2023-05-16T07:44:31;10.90;;;1.33;;
75320;SDS011;68337;52.196;5.660;2023-05-16T07:46:57;5.40;;;1.30;;
75320;SDS011;68337;52.196;5.660;2023-05-16T07:49:23;5.85;;;1.15;;
75320;SDS011;68337;52.196;5.660;2023-05-16T07:51:48;8.00;;;1.60;;
75320;SDS011;68337;52.196;5.660;2023-05-16T07:54:14;3.03;;;1.00;;
75320;SDS011;68337;52.196;5.660;2023-05-16T07:56:40;9.43;;;1.30;;
75320;SDS011;68337;52.196;5.660;2023-05-16T07:59:06;3.70;;;1.02;;
75320;SDS011;68337;52.196;5.660;2023-05-16T08:01:32;1.65;;;0.80;;
75320;SDS011;68337;52.196;5.660;2023-05-16T08:03:57;8.10;;;1.35;;
75320;SDS011;68337;52.196;5.660;2023-05-16T08:06:23;2.28;;;0.90;;
75320;SDS011;68337;52.196;5.660;2023-05-16T08:08:49;6.22;;;1.50;;
75320;SDS011;68337;52.196;5.660;2023-05-16T08:11:14;5.78;;;1.10;;
75320;SDS011;68337;52.196;5.660;2023-05-16T08:13:40;3.80;;;0.80;;
75320;SDS011;68337;52.196;5.660;2023-05-16T08:16:06;2.47;;;0.80;;
75320;SDS011;68337;52.196;5.660;2023-05-16T08:18:31;5.30;;;0.90;;
75320;SDS011;68337;52.196;5.660;2023-05-16T08:20:57;3.17;;;0.98;;
75320;SDS011;68337;52.196;5.660;2023-05-16T08:23:23;3.58;;;1.60;;
75320;SDS011;68337;52.196;5.660;2023-05-16T08:25:49;6.68;;;1.10;;
75320;SDS011;68337;52.196;5.660;2023-05-16T08:28:15;6.47;;;1.30;;
75320;SDS011;68337;52.196;5.660;2023-05-16T08:30:41;6.05;;;1.35;;
75320;SDS011;68337;52.196;5.660;2023-05-16T08:33:06;4.30;;;1.35;;
75320;SDS011;68337;52.196;5.660;2023-05-16T08:35:34;7.78;;;1.35;;
75320;SDS011;68337;52.196;5.660;2023-05-16T08:38:00;4.75;;;1.38;;
75320;SDS011;68337;52.196;5.660;2023-05-16T08:40:27;6.05;;;1.67;;
75320;SDS011;68337;52.196;5.660;2023-05-16T08:42:53;3.30;;;1.17;;
75320;SDS011;68337;52.196;5.660;2023-05-16T08:45:19;2.65;;;0.95;;
75320;SDS011;68337;52.196;5.660;2023-05-16T08:47:47;4.70;;;1.30;;
75320;SDS011;68337;52.196;5.660;2023-05-16T08:50:14;5.90;;;1.48;;
75320;SDS011;68337;52.196;5.660;2023-05-16T08:52:40;5.78;;;1.20;;
75320;SDS011;68337;52.196;5.660;2023-05-16T08:55:08;4.30;;;1.20;;
75320;SDS011;68337;52.196;5.660;2023-05-16T08:57:35;3.10;;;1.20;;
75320;SDS011;68337;52.196;5.660;2023-05-16T09:00:02;3.97;;;1.20;;
75320;SDS011;68337;52.196;5.660;2023-05-16T09:02:32;5.10;;;1.10;;
75320;SDS011;68337;52.196;5.660;2023-05-16T09:04:57;3.33;;;1.10;;
75320;SDS011;68337;52.196;5.660;2023-05-16T09:07:24;4.03;;;1.00;;
75320;SDS011;68337;52.196;5.660;2023-05-16T09:09:50;7.30;;;1.15;;
75320;SDS011;68337;52.196;5.660;2023-05-16T09:12:15;2.13;;;0.93;;
75320;SDS011;68337;52.196;5.660;2023-05-16T09:14:41;6.03;;;0.95;;
75320;SDS011;68337;52.196;5.660;2023-05-16T09:17:08;6.63;;;0.93;;
75320;SDS011;68337;52.196;5.660;2023-05-16T09:19:40;4.68;;;1.20;;
75320;SDS011;68337;52.196;5.660;2023-05-16T09:22:10;5.18;;;1.02;;
75320;SDS011;68337;52.196;5.660;2023-05-16T09:24:41;5.70;;;0.90;;
75320;SDS011;68337;52.196;5.660;2023-05-16T09:27:08;4.25;;;1.10;;
75320;SDS011;68337;52.196;5.660;2023-05-16T09:29:35;3.22;;;1.10;;
75320;SDS011;68337;52.196;5.660;2023-05-16T09:32:07;3.97;;;0.95;;
75320;SDS011;68337;52.196;5.660;2023-05-16T09:34:48;10.77;;;1.52;;
75320;SDS011;68337;52.196;5.660;2023-05-16T09:37:15;4.43;;;1.05;;
75320;SDS011;68337;52.196;5.660;2023-05-16T09:39:48;6.85;;;1.17;;
75320;SDS011;68337;52.196;5.660;2023-05-16T09:42:15;4.68;;;1.33;;
75320;SDS011;68337;52.196;5.660;2023-05-16T09:44:45;4.50;;;1.35;;
75320;SDS011;68337;52.196;5.660;2023-05-16T09:47:19;4.30;;;1.23;;
75320;SDS011;68337;52.196;5.660;2023-05-16T09:49:46;6.20;;;1.33;;
75320;SDS011;68337;52.196;5.660;2023-05-16T09:52:15;4.47;;;0.82;;
75320;SDS011;68337;52.196;5.660;2023-05-16T09:54:41;4.78;;;1.33;;
75320;SDS011;68337;52.196;5.660;2023-05-16T09:57:07;6.43;;;1.23;;
75320;SDS011;68337;52.196;5.660;2023-05-16T09:59:36;6.13;;;1.25;;
75320;SDS011;68337;52.196;5.660;2023-05-16T10:02:04;4.32;;;0.90;;
75320;SDS011;68337;52.196;5.660;2023-05-16T10:04:32;5.30;;;1.25;;
75320;SDS011;68337;52.196;5.660;2023-05-16T10:06:59;3.63;;;1.00;;
75320;SDS011;68337;52.196;5.660;2023-05-16T10:09:33;7.45;;;1.48;;
75320;SDS011;68337;52.196;5.660;2023-05-16T10:12:00;5.93;;;0.95;;
75320;SDS011;68337;52.196;5.660;2023-05-16T10:14:28;5.03;;;1.05;;
75320;SDS011;68337;52.196;5.660;2023-05-16T10:16:58;4.47;;;1.35;;
75320;SDS011;68337;52.196;5.660;2023-05-16T10:19:25;2.83;;;0.90;;
75320;SDS011;68337;52.196;5.660;2023-05-16T10:21:52;6.72;;;1.50;;
75320;SDS011;68337;52.196;5.660;2023-05-16T10:24:24;6.88;;;1.02;;
75320;SDS011;68337;52.196;5.660;2023-05-16T10:26:55;4.78;;;1.17;;
75320;SDS011;68337;52.196;5.660;2023-05-16T10:29:21;5.30;;;1.20;;
75320;SDS011;68337;52.196;5.660;2023-05-16T10:31:47;5.78;;;1.25;;
75320;SDS011;68337;52.196;5.660;2023-05-16T10:34:14;3.20;;;1.02;;
75320;SDS011;68337;52.196;5.660;2023-05-16T10:36:41;7.03;;;1.20;;
75320;SDS011;68337;52.196;5.660;2023-05-16T10:39:08;3.60;;;1.05;;
75320;SDS011;68337;52.196;5.660;2023-05-16T10:41:34;3.60;;;0.95;;
75320;SDS011;68337;52.196;5.660;2023-05-16T10:44:00;6.40;;;1.10;;
75320;SDS011;68337;52.196;5.660;2023-05-16T10:46:26;6.40;;;1.25;;
75320;SDS011;68337;52.196;5.660;2023-05-16T10:48:55;5.10;;;0.82;;
75320;SDS011;68337;52.196;5.660;2023-05-16T10:53:47;6.72;;;1.20;;
75320;SDS011;68337;52.196;5.660;2023-05-16T10:56:16;1.88;;;0.95;;
75320;SDS011;68337;52.196;5.660;2023-05-16T10:58:52;3.70;;;1.20;;
75320;SDS011;68337;52.196;5.660;2023-05-16T11:04:06;6.32;;;1.27;;
75320;SDS011;68337;52.196;5.660;2023-05-16T11:11:41;2.55;;;0.93;;
75320;SDS011;68337;52.196;5.660;2023-05-16T11:14:23;6.30;;;1.33;;
75320;SDS011;68337;52.196;5.660;2023-05-16T11:19:31;9.23;;;1.23;;
75320;SDS011;68337;52.196;5.660;2023-05-16T11:22:07;5.18;;;1.38;;
75320;SDS011;68337;52.196;5.660;2023-05-16T11:27:22;5.18;;;1.33;;
75320;SDS011;68337;52.196;5.660;2023-05-16T11:29:50;6.63;;;0.95;;
75320;SDS011;68337;52.196;5.660;2023-05-16T11:32:19;4.80;;;1.27;;
75320;SDS011;68337;52.196;5.660;2023-05-16T11:34:47;3.70;;;1.00;;
75320;SDS011;68337;52.196;5.660;2023-05-16T11:37:13;3.47;;;1.13;;
75320;SDS011;68337;52.196;5.660;2023-05-16T11:39:40;6.03;;;0.98;;
75320;SDS011;68337;52.196;5.660;2023-05-16T11:42:05;7.72;;;1.10;;
75320;SDS011;68337;52.196;5.660;2023-05-16T11:44:31;3.63;;;1.02;;
75320;SDS011;68337;52.196;5.660;2023-05-16T11:46:58;4.57;;;1.20;;
75320;SDS011;68337;52.196;5.660;2023-05-16T11:49:26;3.28;;;0.98;;
75320;SDS011;68337;52.196;5.660;2023-05-16T11:51:53;7.35;;;1.05;;
75320;SDS011;68337;52.196;5.660;2023-05-16T11:54:20;6.28;;;1.38;;
75320;SDS011;68337;52.196;5.660;2023-05-16T11:56:46;5.20;;;1.10;;
75320;SDS011;68337;52.196;5.660;2023-05-16T11:59:13;4.57;;;1.10;;
75320;SDS011;68337;52.196;5.660;2023-05-16T12:01:39;6.35;;;1.10;;
75320;SDS011;68337;52.196;5.660;2023-05-16T12:04:08;9.00;;;1.35;;
75320;SDS011;68337;52.196;5.660;2023-05-16T12:06:36;5.03;;;1.17;;
75320;SDS011;68337;52.196;5.660;2023-05-16T12:09:05;3.78;;;1.38;;
75320;SDS011;68337;52.196;5.660;2023-05-16T12:11:37;2.67;;;1.10;;
75320;SDS011;68337;52.196;5.660;2023-05-16T12:14:04;3.15;;;0.88;;
75320;SDS011;68337;52.196;5.660;2023-05-16T12:16:36;3.97;;;1.25;;
75320;SDS011;68337;52.196;5.660;2023-05-16T12:19:06;5.15;;;1.13;;
75320;SDS011;68337;52.196;5.660;2023-05-16T12:21:32;11.85;;;1.48;;
75320;SDS011;68337;52.196;5.660;2023-05-16T12:23:58;5.30;;;1.10;;
75320;SDS011;68337;52.196;5.660;2023-05-16T12:26:25;7.05;;;1.50;;
75320;SDS011;68337;52.196;5.660;2023-05-16T12:28:58;8.13;;;1.33;;
75320;SDS011;68337;52.196;5.660;2023-05-16T12:31:26;4.57;;;0.90;;
75320;SDS011;68337;52.196;5.660;2023-05-16T12:33:54;1.80;;;1.02;;
75320;SDS011;68337;52.196;5.660;2023-05-16T12:36:21;6.53;;;1.50;;
75320;SDS011;68337;52.196;5.660;2023-05-16T12:38:48;3.13;;;1.05;;
75320;SDS011;68337;52.196;5.660;2023-05-16T12:41:18;3.83;;;1.13;;
75320;SDS011;68337;52.196;5.660;2023-05-16T12:43:45;4.28;;;1.25;;
75320;SDS011;68337;52.196;5.660;2023-05-16T12:46:13;2.53;;;0.90;;
75320;SDS011;68337;52.196;5.660;2023-05-16T12:48:39;5.25;;;1.27;;
75320;SDS011;68337;52.196;5.660;2023-05-16T12:51:13;6.18;;;1.23;;
75320;SDS011;68337;52.196;5.660;2023-05-16T12:53:41;4.30;;;1.23;;
75320;SDS011;68337;52.196;5.660;2023-05-16T12:56:11;4.00;;;1.40;;
75320;SDS011;68337;52.196;5.660;2023-05-16T12:58:37;6.20;;;1.35;;
75320;SDS011;68337;52.196;5.660;2023-05-16T13:01:03;3.10;;;0.80;;
75320;SDS011;68337;52.196;5.660;2023-05-16T13:03:30;4.10;;;1.25;;
75320;SDS011;68337;52.196;5.660;2023-05-16T13:05:57;4.95;;;1.52;;
75320;SDS011;68337;52.196;5.660;2023-05-16T13:08:23;4.38;;;1.05;;
75320;SDS011;68337;52.196;5.660;2023-05-16T13:10:49;4.05;;;1.23;;
75320;SDS011;68337;52.196;5.660;2023-05-16T13:13:15;5.75;;;1.92;;
75320;SDS011;68337;52.196;5.660;2023-05-16T13:15:43;5.35;;;1.02;;
75320;SDS011;68337;52.196;5.660;2023-05-16T13:18:09;6.22;;;1.45;;
75320;SDS011;68337;52.196;5.660;2023-05-16T13:20:36;3.88;;;1.42;;
75320;SDS011;68337;52.196;5.660;2023-05-16T13:23:02;3.60;;;1.52;;
75320;SDS011;68337;52.196;5.660;2023-05-16T13:25:29;9.40;;;1.70;;
75320;SDS011;68337;52.196;5.660;2023-05-16T13:27:55;4.55;;;1.42;;
75320;SDS011;68337;52.196;5.660;2023-05-16T13:30:21;7.35;;;1.55;;
75320;SDS011;68337;52.196;5.660;2023-05-16T13:32:47;6.88;;;1.60;;
75320;SDS011;68337;52.196;5.660;2023-05-16T13:35:13;8.98;;;1.98;;
75320;SDS011;68337;52.196;5.660;2023-05-16T13:37:38;5.63;;;1.27;;
75320;SDS011;68337;52.196;5.660;2023-05-16T13:40:05;3.67;;;1.35;;
75320;SDS011;68337;52.196;5.660;2023-05-16T13:42:34;4.68;;;1.25;;
75320;SDS011;68337;52.196;5.660;2023-05-16T13:45:01;7.65;;;1.50;;
75320;SDS011;68337;52.196;5.660;2023-05-16T13:47:27;2.42;;;1.17;;
75320;SDS011;68337;52.196;5.660;2023-05-16T13:49:53;5.72;;;1.17;;
75320;SDS011;68337;52.196;5.660;2023-05-16T13:52:19;8.00;;;1.77;;
75320;SDS011;68337;52.196;5.660;2023-05-16T13:54:45;7.03;;;1.52;;
75320;SDS011;68337;52.196;5.660;2023-05-16T13:57:10;4.75;;;1.48;;
75320;SDS011;68337;52.196;5.660;2023-05-16T13:59:36;7.35;;;1.17;;
75320;SDS011;68337;52.196;5.660;2023-05-16T14:02:02;10.05;;;1.48;;
75320;SDS011;68337;52.196;5.660;2023-05-16T14:04:28;4.93;;;1.48;;
75320;SDS011;68337;52.196;5.660;2023-05-16T14:06:54;6.88;;;1.73;;
75320;SDS011;68337;52.196;5.660;2023-05-16T14:09:20;6.55;;;1.60;;
75320;SDS011;68337;52.196;5.660;2023-05-16T14:11:46;5.78;;;1.67;;
75320;SDS011;68337;52.196;5.660;2023-05-16T14:14:12;5.22;;;1.33;;
75320;SDS011;68337;52.196;5.660;2023-05-16T14:16:37;14.63;;;1.70;;
75320;SDS011;68337;52.196;5.660;2023-05-16T14:19:07;5.65;;;1.48;;
75320;SDS011;68337;52.196;5.660;2023-05-16T14:21:33;7.53;;;1.23;;
75320;SDS011;68337;52.196;5.660;2023-05-16T14:23:58;5.20;;;1.27;;
75320;SDS011;68337;52.196;5.660;2023-05-16T14:26:24;6.22;;;1.70;;
75320;SDS011;68337;52.196;5.660;2023-05-16T14:28:50;3.83;;;1.27;;
75320;SDS011;68337;52.196;5.660;2023-05-16T14:31:16;7.07;;;1.20;;
75320;SDS011;68337;52.196;5.660;2023-05-16T14:33:42;7.60;;;1.40;;
75320;SDS011;68337;52.196;5.660;2023-05-16T14:36:08;8.27;;;1.73;;
75320;SDS011;68337;52.196;5.660;2023-05-16T14:38:34;7.05;;;1.50;;
75320;SDS011;68337;52.196;5.660;2023-05-16T14:41:00;7.25;;;1.40;;
75320;SDS011;68337;52.196;5.660;2023-05-16T14:43:25;7.55;;;2.00;;
75320;SDS011;68337;52.196;5.660;2023-05-16T14:45:51;5.20;;;1.38;;
75320;SDS011;68337;52.196;5.660;2023-05-16T14:48:17;8.73;;;1.67;;
75320;SDS011;68337;52.196;5.660;2023-05-16T14:50:42;6.25;;;1.70;;
75320;SDS011;68337;52.196;5.660;2023-05-16T14:53:08;4.10;;;1.30;;
75320;SDS011;68337;52.196;5.660;2023-05-16T14:55:33;7.20;;;1.92;;
75320;SDS011;68337;52.196;5.660;2023-05-16T14:57:59;7.50;;;1.60;;
75320;SDS011;68337;52.196;5.660;2023-05-16T15:00:25;8.32;;;1.35;;
75320;SDS011;68337;52.196;5.660;2023-05-16T15:02:51;3.95;;;1.02;;
75320;SDS011;68337;52.196;5.660;2023-05-16T15:05:17;4.97;;;1.48;;
75320;SDS011;68337;52.196;5.660;2023-05-16T15:07:43;6.35;;;1.38;;
75320;SDS011;68337;52.196;5.660;2023-05-16T15:10:09;5.00;;;1.35;;